createdAt,value
2019-02-18T00:00:50.428Z,101944.98
2019-02-18T00:03:18.960Z,101951.43
2019-02-18T00:05:47.163Z,101950.78
2019-02-18T00:08:15.298Z,101955.26
2019-02-18T00:10:43.381Z,101958.09
2019-02-18T00:13:11.499Z,101950.80
2019-02-18T00:15:39.649Z,101959.78
2019-02-18T00:18:07.798Z,101963.53
2019-02-18T00:20:36.133Z,101958.30
2019-02-18T00:23:04.635Z,101953.97
2019-02-18T00:25:32.702Z,101964.29
2019-02-18T00:28:00.820Z,101964.05
2019-02-18T00:30:28.927Z,101961.14
2019-02-18T00:32:57.171Z,101957.15
2019-02-18T00:35:25.336Z,101954.48
2019-02-18T00:37:53.412Z,101951.98
2019-02-18T00:40:22.097Z,101959.09
2019-02-18T00:42:50.539Z,101956.42
2019-02-18T00:45:18.721Z,101954.09
2019-02-18T00:47:48.102Z,101959.50
2019-02-18T00:50:16.434Z,101958.31
2019-02-18T00:52:44.891Z,101954.20
2019-02-18T00:55:12.937Z,101966.34
2019-02-18T00:57:41.013Z,101953.91
2019-02-18T01:00:11.070Z,101968.92
2019-02-18T01:02:39.532Z,101967.62
2019-02-18T01:05:08.209Z,101970.13
2019-02-18T01:07:36.553Z,101962.89
2019-02-18T01:10:05.886Z,101966.17
2019-02-18T01:12:33.977Z,101965.84
2019-02-18T01:15:04.687Z,101970.22
2019-02-18T01:17:33.030Z,101972.99
2019-02-18T01:20:01.158Z,101970.05
2019-02-18T01:22:29.454Z,101969.80
2019-02-18T01:24:57.546Z,101966.64
2019-02-18T01:27:26.015Z,101970.94
2019-02-18T01:29:54.170Z,101969.34
2019-02-18T01:32:22.362Z,101966.92
2019-02-18T01:34:50.488Z,101966.39
2019-02-18T01:37:18.544Z,101964.44
2019-02-18T01:39:46.649Z,101956.42
2019-02-18T01:42:16.074Z,101956.73
2019-02-18T01:44:44.211Z,101957.80
2019-02-18T01:47:12.405Z,101952.41
2019-02-18T01:49:41.123Z,101951.34
2019-02-18T01:52:09.228Z,101953.78
2019-02-18T01:54:38.511Z,101947.58
2019-02-18T01:57:06.615Z,101944.38
2019-02-18T01:59:34.670Z,101953.03
2019-02-18T02:02:02.779Z,101952.16
2019-02-18T02:04:30.983Z,101956.20
2019-02-18T02:06:59.314Z,101954.85
2019-02-18T02:09:27.952Z,101951.38
2019-02-18T02:11:56.175Z,101951.63
2019-02-18T02:14:24.243Z,101946.55
2019-02-18T02:16:52.593Z,101948.17
2019-02-18T02:19:20.922Z,101949.27
2019-02-18T02:21:49.001Z,101946.58
2019-02-18T02:24:17.459Z,101943.91
2019-02-18T02:26:45.738Z,101941.20
2019-02-18T02:29:13.843Z,101938.80
2019-02-18T02:31:42.352Z,101946.32
2019-02-18T02:34:11.400Z,101941.20
2019-02-18T02:36:39.560Z,101944.75
2019-02-18T02:39:07.994Z,101935.88
2019-02-18T02:41:36.175Z,101947.71
2019-02-18T02:44:04.314Z,101946.39
2019-02-18T02:46:32.436Z,101941.05
2019-02-18T02:49:01.661Z,101939.45
2019-02-18T02:51:30.100Z,101938.66
2019-02-18T02:53:58.522Z,101940.55
2019-02-18T02:56:26.935Z,101938.95
2019-02-18T02:58:55.102Z,101933.33
2019-02-18T03:01:23.199Z,101931.96
2019-02-18T03:03:51.494Z,101934.09
2019-02-18T03:06:19.908Z,101931.94
2019-02-18T03:08:48.103Z,101931.95
2019-02-18T03:11:16.197Z,101940.30
2019-02-18T03:13:44.273Z,101933.81
2019-02-18T03:16:12.442Z,101930.89
2019-02-18T03:18:40.806Z,101937.91
2019-02-18T03:21:09.032Z,101932.79
2019-02-18T03:23:37.144Z,101931.97
2019-02-18T03:26:05.574Z,101928.47
2019-02-18T03:29:29.848Z,101929.27
2019-02-18T03:31:58.226Z,101926.31
2019-02-18T03:34:40.762Z,101925.23
2019-02-18T03:37:08.965Z,101930.89
2019-02-18T03:39:37.154Z,101924.16
2019-02-18T03:42:05.243Z,101930.09
2019-02-18T03:44:33.447Z,101923.34
2019-02-18T03:47:01.832Z,101927.14
2019-02-18T03:49:29.899Z,101929.02
2019-02-18T03:51:58.297Z,101931.16
2019-02-18T03:54:26.455Z,101931.72
2019-02-18T03:56:54.633Z,101934.66
2019-02-18T03:59:22.822Z,101933.84
2019-02-18T04:01:51.034Z,101931.72
2019-02-18T04:04:19.153Z,101937.10
2019-02-18T04:06:47.396Z,101939.80
2019-02-18T04:09:15.498Z,101939.52
2019-02-18T04:11:43.629Z,101936.02
2019-02-18T04:14:11.808Z,101942.22
2019-02-18T04:16:40.035Z,101945.71
2019-02-18T04:19:08.225Z,101944.08
2019-02-18T04:21:36.366Z,101938.18
2019-02-18T04:24:04.476Z,101941.67
2019-02-18T04:26:32.543Z,101941.13
2019-02-18T04:29:00.769Z,101936.84
2019-02-18T04:31:29.102Z,101938.98
2019-02-18T04:33:57.221Z,101939.52
2019-02-18T04:36:25.428Z,101934.41
2019-02-18T04:38:54.387Z,101937.11
2019-02-18T04:41:22.786Z,101938.16
2019-02-18T04:43:51.178Z,101937.09
2019-02-18T04:46:19.357Z,101938.44
2019-02-18T04:48:47.472Z,101935.47
2019-02-18T04:51:15.994Z,101934.94
2019-02-18T04:53:44.077Z,101928.47
2019-02-18T04:56:12.323Z,101926.62
2019-02-18T04:58:40.485Z,101929.04
2019-02-18T05:01:08.838Z,101926.88
2019-02-18T05:03:36.931Z,101913.17
2019-02-18T05:06:05.027Z,101919.88
2019-02-18T05:08:33.525Z,101920.42
2019-02-18T05:11:02.218Z,101917.74
2019-02-18T05:13:30.292Z,101923.11
2019-02-18T05:15:58.524Z,101913.96
2019-02-18T05:18:26.701Z,101921.77
2019-02-18T05:20:55.295Z,101915.30
2019-02-18T05:23:23.484Z,101914.48
2019-02-18T05:25:51.625Z,101919.35
2019-02-18T05:28:19.774Z,101913.70
2019-02-18T05:30:47.990Z,101912.08
2019-02-18T05:33:16.223Z,101914.48
2019-02-18T05:35:44.341Z,101914.77
2019-02-18T05:38:12.675Z,101914.23
2019-02-18T05:40:40.750Z,101912.62
2019-02-18T05:43:09.158Z,101914.49
2019-02-18T05:45:37.391Z,101908.56
2019-02-18T05:48:05.470Z,101911.25
2019-02-18T05:50:33.581Z,101911.28
2019-02-18T05:53:02.541Z,101913.70
2019-02-18T05:55:31.156Z,101904.02
2019-02-18T05:57:59.810Z,101910.47
2019-02-18T06:00:29.479Z,101909.11
2019-02-18T06:02:58.153Z,101912.33
2019-02-18T06:05:26.563Z,101910.73
2019-02-18T06:07:54.677Z,101901.03
2019-02-18T06:10:22.828Z,101908.06
2019-02-18T06:12:51.334Z,101915.57
2019-02-18T06:15:19.672Z,101911.27
2019-02-18T06:17:47.788Z,101912.34
2019-02-18T06:20:16.006Z,101907.52
2019-02-18T06:22:44.161Z,101907.79
2019-02-18T06:25:12.538Z,101916.38
2019-02-18T06:27:40.765Z,101919.62
2019-02-18T06:30:09.095Z,101921.75
2019-02-18T06:32:37.373Z,101918.25
2019-02-18T06:35:05.953Z,101919.61
2019-02-18T06:37:34.410Z,101921.21
2019-02-18T06:40:02.795Z,101918.27
2019-02-18T06:42:30.908Z,101924.71
2019-02-18T06:45:20.388Z,101930.09
2019-02-18T06:47:48.562Z,101927.41
2019-02-18T06:50:17.094Z,101930.07
2019-02-18T06:52:45.189Z,101927.67
2019-02-18T06:55:13.373Z,101936.55
2019-02-18T06:58:04.678Z,101947.30
2019-02-18T07:00:44.824Z,101940.31
2019-02-18T07:03:21.362Z,101943.02
2019-02-18T07:05:57.063Z,101951.36
2019-02-18T07:08:43.429Z,101952.44
2019-02-18T07:11:16.155Z,101949.72
2019-02-18T07:13:44.356Z,101951.09
2019-02-18T07:16:12.407Z,101951.06
2019-02-18T07:18:40.712Z,101953.22
2019-02-18T07:21:08.795Z,101949.98
2019-02-18T07:23:37.043Z,101952.14
2019-02-18T07:26:05.282Z,101944.03
2019-02-18T07:28:33.466Z,101951.58
2019-02-18T07:31:01.922Z,101951.30
2019-02-18T07:33:30.071Z,101945.66
2019-02-18T07:35:58.207Z,101941.62
2019-02-18T07:38:26.254Z,101937.83
2019-02-18T07:40:54.502Z,101940.19
2019-02-18T07:43:23.233Z,101939.61
2019-02-18T07:45:51.687Z,101936.41
2019-02-18T07:48:19.968Z,101935.31
2019-02-18T07:50:48.156Z,101929.08
2019-02-18T07:53:16.551Z,101933.32
2019-02-18T07:55:44.788Z,101932.97
2019-02-18T07:58:13.159Z,101933.75
2019-02-18T08:00:41.279Z,101942.30
2019-02-18T08:03:09.444Z,101937.92
2019-02-18T08:05:37.837Z,101945.89
2019-02-18T08:08:05.952Z,101943.13
2019-02-18T08:10:34.149Z,101947.32
2019-02-18T08:13:02.306Z,101946.68
2019-02-18T08:15:30.400Z,101948.44
2019-02-18T08:17:58.476Z,101939.94
2019-02-18T08:20:26.942Z,101942.51
2019-02-18T08:22:55.054Z,101941.31
2019-02-18T08:25:23.177Z,101930.12
2019-02-18T08:27:51.481Z,101929.74
2019-02-18T08:30:19.605Z,101935.47
2019-02-18T08:32:47.690Z,101929.34
2019-02-18T08:35:16.393Z,101925.03
2019-02-18T08:37:44.596Z,101930.16
2019-02-18T08:40:21.706Z,101927.02
2019-02-18T08:42:42.659Z,101930.04
2019-02-18T08:45:15.329Z,101932.09
2019-02-18T08:47:43.426Z,101924.78
2019-02-18T08:50:11.788Z,101928.59
2019-02-18T08:52:39.982Z,101922.68
2019-02-18T08:55:10.712Z,101925.47
2019-02-18T08:57:38.797Z,101923.60
2019-02-18T09:00:13.650Z,101921.67
2019-02-18T09:02:42.099Z,101919.77
2019-02-18T09:05:10.432Z,101920.17
2019-02-18T09:07:40.287Z,101924.30
2019-02-18T09:10:10.042Z,101915.64
2019-02-18T09:12:38.128Z,101921.69
2019-02-18T09:15:07.436Z,101920.14
2019-02-18T09:17:36.028Z,101917.43
2019-02-18T09:20:06.395Z,101913.12
2019-02-18T09:22:53.881Z,101911.25
2019-02-18T09:25:44.048Z,101911.31
2019-02-18T09:28:13.747Z,101906.91
2019-02-18T09:30:44.568Z,101909.08
2019-02-18T09:33:13.032Z,101913.70
2019-02-18T09:35:41.195Z,101902.94
2019-02-18T09:38:09.273Z,101903.92
2019-02-18T09:40:45.117Z,101896.83
2019-02-18T09:43:07.374Z,101899.86
2019-02-18T09:45:35.484Z,101898.98
2019-02-18T09:48:05.449Z,101894.76
2019-02-18T09:50:33.716Z,101894.37
2019-02-18T09:53:02.986Z,101892.55
2019-02-18T09:55:31.580Z,101888.63
2019-02-18T09:57:59.999Z,101882.23
2019-02-18T10:00:28.281Z,101881.75
2019-02-18T10:03:04.812Z,101881.85
2019-02-18T10:05:32.851Z,101879.52
2019-02-18T10:08:01.223Z,101882.41
2019-02-18T10:10:29.622Z,101882.30
2019-02-18T10:12:59.606Z,101878.36
2019-02-18T10:15:27.810Z,101879.23
2019-02-18T10:17:56.300Z,101878.66
2019-02-18T10:20:24.611Z,101873.58
2019-02-18T10:22:52.821Z,101872.84
2019-02-18T10:25:20.928Z,101863.78
2019-02-18T10:27:50.835Z,101855.98
2019-02-18T10:30:20.742Z,101855.73
2019-02-18T10:32:49.006Z,101847.56
2019-02-18T10:35:17.332Z,101851.04
2019-02-18T10:37:54.667Z,101841.86
2019-02-18T10:40:15.494Z,101843.01
2019-02-18T10:42:43.793Z,101851.94
2019-02-18T10:45:12.828Z,101846.48
2019-02-18T10:47:40.990Z,101847.06
2019-02-18T10:50:10.023Z,101834.45
2019-02-18T10:52:38.329Z,101835.52
2019-02-18T10:55:07.522Z,101826.70
2019-02-18T10:57:35.970Z,101814.62
2019-02-18T11:00:08.836Z,101812.95
2019-02-18T11:02:37.198Z,101809.66
2019-02-18T11:05:06.604Z,101805.64
2019-02-18T11:07:34.841Z,101811.94
2019-02-18T11:10:05.121Z,101805.45
2019-02-18T11:12:33.546Z,101803.34
2019-02-18T11:15:01.652Z,101799.42
2019-02-18T11:17:38.684Z,101806.09
2019-02-18T11:20:09.799Z,101797.23
2019-02-18T11:22:38.140Z,101786.88
2019-02-18T11:25:07.688Z,101785.75
2019-02-18T11:27:37.566Z,101781.66
2019-02-18T11:30:09.429Z,101784.38
2019-02-18T11:32:37.805Z,101783.70
2019-02-18T11:35:06.290Z,101780.27
2019-02-18T11:37:34.356Z,101772.69
2019-02-18T11:40:02.641Z,101782.31
2019-02-18T11:42:30.758Z,101772.69
2019-02-18T11:44:59.506Z,101774.41
2019-02-18T11:47:28.223Z,101771.53
2019-02-18T11:49:56.502Z,101772.69
2019-02-18T11:52:24.592Z,101771.73
2019-02-18T11:54:52.668Z,101767.66
2019-02-18T11:57:20.806Z,101765.70
2019-02-18T11:59:49.032Z,101764.12
2019-02-18T12:02:17.416Z,101767.00
2019-02-18T12:04:45.497Z,101768.63
2019-02-18T12:07:13.895Z,101762.23
2019-02-18T12:09:42.127Z,101762.13
2019-02-18T12:12:10.299Z,101760.80
2019-02-18T12:14:39.375Z,101755.33
2019-02-18T12:17:07.443Z,101752.48
2019-02-18T12:19:36.188Z,101751.98
2019-02-18T12:22:04.970Z,101745.11
2019-02-18T12:24:33.150Z,101742.11
2019-02-18T12:27:01.235Z,101737.98
2019-02-18T12:29:29.286Z,101724.47
2019-02-18T12:31:58.001Z,101720.92
2019-02-18T12:34:26.166Z,101711.98
2019-02-18T12:36:54.746Z,101705.08
2019-02-18T12:39:22.918Z,101704.09
2019-02-18T12:41:51.314Z,101707.16
2019-02-18T12:44:19.472Z,101698.25
2019-02-18T12:46:47.863Z,101702.21
2019-02-18T12:49:16.342Z,101707.52
2019-02-18T12:51:45.298Z,101694.54
2019-02-18T12:54:13.396Z,101691.92
2019-02-18T12:56:41.828Z,101688.58
2019-02-18T12:59:10.170Z,101687.88
2019-02-18T13:01:39.104Z,101685.30
2019-02-18T13:04:07.339Z,101684.91
2019-02-18T13:06:35.569Z,101681.78
2019-02-18T13:09:05.387Z,101682.91
2019-02-18T13:11:33.981Z,101671.13
2019-02-18T13:14:02.283Z,101676.02
2019-02-18T13:16:31.767Z,101677.00
2019-02-18T13:18:59.874Z,101667.37
2019-02-18T13:21:28.547Z,101662.82
2019-02-18T13:23:56.730Z,101653.52
2019-02-18T13:26:25.094Z,101658.42
2019-02-18T13:28:53.599Z,101654.69
2019-02-18T13:31:22.159Z,101652.09
2019-02-18T13:33:50.242Z,101649.28
2019-02-18T13:36:19.953Z,101643.94
2019-02-18T13:38:48.763Z,101632.68
2019-02-18T13:41:17.973Z,101636.08
2019-02-18T13:43:46.108Z,101637.81
2019-02-18T13:46:14.356Z,101636.90
2019-02-18T13:48:42.623Z,101632.30
2019-02-18T13:51:11.174Z,101631.84
2019-02-18T13:53:39.355Z,101631.24
2019-02-18T13:56:07.931Z,101625.22
2019-02-18T13:58:36.081Z,101619.77
2019-02-18T14:01:05.605Z,101625.05
2019-02-18T14:03:33.845Z,101621.06
2019-02-18T14:06:02.112Z,101619.38
2019-02-18T14:08:30.451Z,101614.88
2019-02-18T14:10:58.528Z,101617.43
2019-02-18T14:13:27.191Z,101614.70
2019-02-18T14:15:55.837Z,101609.40
2019-02-18T14:18:23.916Z,101613.33
2019-02-18T14:20:52.395Z,101608.52
2019-02-18T14:23:20.734Z,101608.69
2019-02-18T14:25:48.990Z,101601.89
2019-02-18T14:28:18.947Z,101598.44
2019-02-18T14:30:47.179Z,101593.45
2019-02-18T14:33:17.332Z,101601.52
2019-02-18T14:35:46.031Z,101602.53
2019-02-18T14:38:14.086Z,101596.32
2019-02-18T14:40:42.319Z,101599.63
2019-02-18T14:43:10.799Z,101595.87
2019-02-18T14:45:39.004Z,101599.00
2019-02-18T14:48:08.852Z,101590.91
2019-02-18T14:50:36.952Z,101585.64
2019-02-18T14:53:05.217Z,101583.39
2019-02-18T14:55:33.501Z,101580.72
2019-02-18T14:58:03.129Z,101579.27
2019-02-18T15:00:31.328Z,101583.29
2019-02-18T15:03:01.271Z,101576.67
2019-02-18T15:05:29.466Z,101574.98
2019-02-18T15:07:57.501Z,101565.41
2019-02-18T15:10:25.950Z,101565.11
2019-02-18T15:12:54.053Z,101567.26
2019-02-18T15:15:22.122Z,101565.66
2019-02-18T15:17:50.238Z,101560.33
2019-02-18T15:20:18.811Z,101559.46
2019-02-18T15:22:47.414Z,101554.58
2019-02-18T15:25:15.977Z,101558.20
2019-02-18T15:27:45.891Z,101551.87
2019-02-18T15:30:15.151Z,101547.24
2019-02-18T15:32:43.356Z,101547.81
2019-02-18T15:35:11.534Z,101545.52
2019-02-18T15:37:39.635Z,101546.92
2019-02-18T15:40:08.552Z,101540.80
2019-02-18T15:42:42.181Z,101534.80
2019-02-18T15:45:07.361Z,101532.30
2019-02-18T15:47:35.565Z,101536.52
2019-02-18T15:50:04.179Z,101532.44
2019-02-18T15:52:32.250Z,101529.36
2019-02-18T15:55:00.961Z,101520.84
2019-02-18T15:57:29.305Z,101514.87
2019-02-18T15:59:57.745Z,101520.20
2019-02-18T16:02:25.843Z,101519.92
2019-02-18T16:04:54.179Z,101520.05
2019-02-18T16:07:22.681Z,101529.56
2019-02-18T16:09:50.764Z,101518.17
2019-02-18T16:12:18.846Z,101515.84
2019-02-18T16:14:47.102Z,101515.83
2019-02-18T16:17:15.180Z,101512.61
2019-02-18T16:19:43.342Z,101508.91
2019-02-18T16:22:11.508Z,101506.25
2019-02-18T16:24:40.015Z,101504.28
2019-02-18T16:27:08.596Z,101501.34
2019-02-18T16:29:36.702Z,101496.24
2019-02-18T16:32:05.730Z,101495.36
2019-02-18T16:34:34.206Z,101492.03
2019-02-18T16:37:02.726Z,101490.55
2019-02-18T16:39:30.826Z,101485.31
2019-02-18T16:41:59.268Z,101490.29
2019-02-18T16:44:27.444Z,101490.84
2019-02-18T16:46:55.890Z,101484.89
2019-02-18T16:49:23.955Z,101485.31
2019-02-18T16:51:52.164Z,101491.75
2019-02-18T16:54:20.854Z,101490.45
2019-02-18T16:56:49.001Z,101485.76
2019-02-18T16:59:17.066Z,101487.17
2019-02-18T17:01:45.433Z,101478.06
2019-02-18T17:04:13.533Z,101481.17
2019-02-18T17:06:42.029Z,101478.43
2019-02-18T17:09:13.544Z,101472.94
2019-02-18T17:11:41.947Z,101469.48
2019-02-18T17:14:10.182Z,101472.27
2019-02-18T17:16:38.325Z,101468.00
2019-02-18T17:19:06.382Z,101468.84
2019-02-18T17:21:34.643Z,101474.59
2019-02-18T17:24:02.720Z,101471.67
2019-02-18T17:26:30.832Z,101474.67
2019-02-18T17:28:58.937Z,101461.19
2019-02-18T17:31:27.067Z,101463.85
2019-02-18T17:33:55.317Z,101466.28
2019-02-18T17:36:23.467Z,101463.46
2019-02-18T17:38:51.562Z,101457.63
2019-02-18T17:41:19.767Z,101445.98
2019-02-18T17:43:48.577Z,101453.14
2019-02-18T17:46:16.784Z,101451.48
2019-02-18T17:48:44.884Z,101455.48
2019-02-18T17:51:13.430Z,101454.05
2019-02-18T17:53:41.509Z,101446.80
2019-02-18T17:56:09.607Z,101453.83
2019-02-18T17:58:37.767Z,101453.69
2019-02-18T18:01:06.364Z,101455.60
2019-02-18T18:03:34.517Z,101452.00
2019-02-18T18:06:02.602Z,101452.66
2019-02-18T18:08:30.728Z,101446.17
2019-02-18T18:10:59.651Z,101448.67
2019-02-18T18:13:27.768Z,101441.72
2019-02-18T18:15:55.934Z,101445.22
2019-02-18T18:18:24.142Z,101448.09
2019-02-18T18:20:52.221Z,101450.23
2019-02-18T18:23:20.359Z,101446.90
2019-02-18T18:25:48.488Z,101445.06
2019-02-18T18:28:16.970Z,101442.57
2019-02-18T18:30:45.053Z,101445.89
2019-02-18T18:33:13.212Z,101438.56
2019-02-18T18:35:41.368Z,101434.33
2019-02-18T18:38:09.492Z,101434.10
2019-02-18T18:40:37.601Z,101428.34
2019-02-18T18:43:05.767Z,101433.52
2019-02-18T18:45:33.860Z,101429.12
2019-02-18T18:48:02.057Z,101428.08
2019-02-18T18:50:30.215Z,101431.41
2019-02-18T18:52:58.438Z,101425.91
2019-02-18T18:55:26.615Z,101430.03
2019-02-18T18:57:55.254Z,101433.39
2019-02-18T19:00:23.974Z,101428.02
2019-02-18T19:02:52.243Z,101429.91
2019-02-18T19:05:20.714Z,101432.72
2019-02-18T19:07:48.886Z,101426.55
2019-02-18T19:10:17.103Z,101427.18
2019-02-18T19:12:45.325Z,101421.64
2019-02-18T19:15:13.554Z,101432.09
2019-02-18T19:17:41.957Z,101422.43
2019-02-18T19:20:11.686Z,101428.45
2019-02-18T19:22:39.891Z,101423.44
2019-02-18T19:25:08.228Z,101423.81
2019-02-18T19:27:36.337Z,101422.45
2019-02-18T19:30:06.312Z,101426.09
2019-02-18T19:32:34.407Z,101426.17
2019-02-18T19:35:02.729Z,101418.65
2019-02-18T19:37:30.864Z,101423.89
2019-02-18T19:39:59.387Z,101423.17
2019-02-18T19:42:27.460Z,101416.85
2019-02-18T19:44:55.601Z,101420.73
2019-02-18T19:47:23.698Z,101419.80
2019-02-18T19:49:51.865Z,101414.88
2019-02-18T19:52:20.070Z,101415.59
2019-02-18T19:54:48.603Z,101414.50
2019-02-18T19:57:16.786Z,101409.58
2019-02-18T19:59:46.104Z,101405.63
2019-02-18T20:02:14.276Z,101406.50
2019-02-18T20:04:42.388Z,101409.77
2019-02-18T20:07:10.909Z,101404.04
2019-02-18T20:09:39.180Z,101401.23
2019-02-18T20:12:07.327Z,101404.67
2019-02-18T20:14:35.460Z,101396.18
2019-02-18T20:17:03.837Z,101395.06
2019-02-18T20:19:31.894Z,101395.31
2019-02-18T20:22:00.528Z,101393.91
2019-02-18T20:24:28.616Z,101397.52
2019-02-18T20:26:56.966Z,101392.38
2019-02-18T20:29:25.053Z,101394.48
2019-02-18T20:31:53.215Z,101399.30
2019-02-18T20:34:21.669Z,101395.56
2019-02-18T20:36:49.820Z,101392.95
2019-02-18T20:39:18.792Z,101394.00
2019-02-18T20:41:47.959Z,101396.27
2019-02-18T20:44:16.125Z,101387.66
2019-02-18T20:46:44.254Z,101386.47
2019-02-18T20:49:12.339Z,101390.20
2019-02-18T20:51:40.500Z,101382.23
2019-02-18T20:54:09.045Z,101389.47
2019-02-18T20:56:37.158Z,101388.77
2019-02-18T20:59:05.522Z,101385.38
2019-02-18T21:01:33.640Z,101379.87
2019-02-18T21:04:01.914Z,101381.02
2019-02-18T21:06:30.023Z,101389.63
2019-02-18T21:08:58.549Z,101392.78
2019-02-18T21:11:26.609Z,101389.53
2019-02-18T21:13:55.983Z,101391.31
2019-02-18T21:16:25.658Z,101393.40
2019-02-18T21:18:53.836Z,101387.30
2019-02-18T21:21:21.993Z,101389.23
2019-02-18T21:23:50.134Z,101383.32
2019-02-18T21:26:18.189Z,101385.17
2019-02-18T21:28:46.437Z,101378.91
2019-02-18T21:31:14.507Z,101379.15
2019-02-18T21:33:42.710Z,101374.05
2019-02-18T21:36:10.815Z,101378.41
2019-02-18T21:38:38.921Z,101372.63
2019-02-18T21:41:07.361Z,101373.97
2019-02-18T21:43:35.479Z,101377.91
2019-02-18T21:46:03.582Z,101370.39
2019-02-18T21:48:32.876Z,101375.14
2019-02-18T21:51:00.931Z,101379.23
2019-02-18T21:53:29.113Z,101370.58
2019-02-18T21:55:57.523Z,101366.53
2019-02-18T21:58:25.853Z,101361.90
2019-02-18T22:00:53.871Z,101362.40
2019-02-18T22:03:22.007Z,101370.27
2019-02-18T22:05:50.247Z,101362.90
2019-02-18T22:08:18.530Z,101361.05
2019-02-18T22:10:46.608Z,101367.27
2019-02-18T22:13:14.777Z,101365.06
2019-02-18T22:15:42.942Z,101362.90
2019-02-18T22:18:11.570Z,101371.55
2019-02-18T22:20:39.637Z,101369.11
2019-02-18T22:23:07.699Z,101367.76
2019-02-18T22:25:35.836Z,101365.36
2019-02-18T22:28:03.933Z,101353.28
2019-02-18T22:30:32.678Z,101370.77
2019-02-18T22:33:00.781Z,101361.97
2019-02-18T22:35:29.961Z,101364.48
2019-02-18T22:37:58.064Z,101366.39
2019-02-18T22:40:26.121Z,101363.17
2019-02-18T22:42:54.311Z,101369.39
2019-02-18T22:45:24.161Z,101367.97
2019-02-18T22:47:53.083Z,101370.90
2019-02-18T22:50:21.123Z,101377.00
2019-02-18T22:52:49.269Z,101377.92
2019-02-18T22:55:17.482Z,101371.28
2019-02-18T22:57:45.917Z,101367.54
2019-02-18T23:01:02.292Z,101377.50
2019-02-18T23:03:30.541Z,101378.70
2019-02-18T23:05:58.870Z,101374.72
2019-02-18T23:08:26.965Z,101377.69
2019-02-18T23:10:55.320Z,101377.15
2019-02-18T23:13:23.453Z,101372.21
2019-02-18T23:15:51.525Z,101369.61
2019-02-18T23:18:20.620Z,101363.92
2019-02-18T23:20:48.683Z,101359.24
2019-02-18T23:23:16.764Z,101357.84
2019-02-18T23:25:44.859Z,101358.20
2019-02-18T23:28:12.939Z,101357.89
2019-02-18T23:30:41.101Z,101362.21
2019-02-18T23:33:09.164Z,101356.61
2019-02-18T23:35:38.913Z,101356.04
2019-02-18T23:38:07.169Z,101356.80
2019-02-18T23:40:35.456Z,101356.80
2019-02-18T23:43:03.570Z,101356.73
2019-02-18T23:45:31.746Z,101354.70
2019-02-18T23:48:00.289Z,101349.92
2019-02-18T23:50:28.380Z,101346.59
2019-02-18T23:52:57.328Z,101343.40
2019-02-18T23:55:26.193Z,101345.87
2019-02-18T23:57:54.259Z,101345.80
